Time;durP1;ratioP1;P1;durP2;ratioP2;P2;SDS_P1;SDS_P2;PMS_P1;PMS_P2;Temp;Humidity;BMP_temperature;BMP_pressure;BME280_temperature;BME280_humidity;BME280_pressure;Samples;Min_cycle;Max_cycle;Signal;HPM_P1;HPM_P2
2023/07/03 00:01:27;;;;;;;17.05;7.75;;;15.60;99.90;;;;;;4935721;29;20099;-77
2023/07/03 00:03:53;;;;;;;20.73;8.40;;;15.50;99.90;;;;;;4935023;29;20506;-77
2023/07/03 00:06:19;;;;;;;22.85;8.85;;;15.50;99.90;;;;;;4934848;29;20044;-77
2023/07/03 00:08:45;;;;;;;19.02;8.75;;;15.50;99.90;;;;;;4930834;29;20036;-77
2023/07/03 00:11:10;;;;;;;19.20;7.85;;;15.50;99.90;;;;;;4930978;29;20043;-77
2023/07/03 00:13:36;;;;;;;19.90;8.35;;;15.50;99.90;;;;;;4933913;29;20155;-76
2023/07/03 00:16:03;;;;;;;21.25;8.63;;;15.50;99.90;;;;;;4934252;29;20040;-77
2023/07/03 00:18:29;;;;;;;21.05;8.20;;;15.50;99.90;;;;;;4918081;29;20503;-77
2023/07/03 00:20:56;;;;;;;17.10;8.45;;;15.40;99.90;;;;;;4934115;29;20042;-77
2023/07/03 00:23:22;;;;;;;20.77;7.68;;;15.40;99.90;;;;;;4934908;29;20044;-77
2023/07/03 00:25:49;;;;;;;22.98;8.30;;;15.40;99.90;;;;;;4934502;29;20133;-76
2023/07/03 00:28:15;;;;;;;20.45;8.70;;;15.40;99.90;;;;;;4919280;29;20071;-77
2023/07/03 00:30:40;;;;;;;20.92;8.35;;;15.40;99.90;;;;;;4933826;29;20039;-77
2023/07/03 00:33:06;;;;;;;20.65;7.65;;;15.30;99.90;;;;;;4934331;29;20036;-77
2023/07/03 00:35:32;;;;;;;22.95;8.13;;;15.40;99.90;;;;;;4918564;29;20523;-76
2023/07/03 00:37:58;;;;;;;19.00;7.95;;;15.40;99.90;;;;;;4941423;29;20043;-77
2023/07/03 00:40:23;;;;;;;25.30;9.20;;;15.40;99.90;;;;;;4933891;29;20513;-76
2023/07/03 00:42:52;;;;;;;22.27;8.60;;;15.40;99.90;;;;;;4933951;29;20027;-77
2023/07/03 00:45:21;;;;;;;19.67;7.97;;;15.50;99.90;;;;;;4934257;29;20069;-77
2023/07/03 00:47:48;;;;;;;25.30;9.23;;;15.50;99.90;;;;;;4933086;29;20032;-77
2023/07/03 00:50:13;;;;;;;18.83;7.57;;;15.40;99.90;;;;;;4926672;29;20040;-77
2023/07/03 00:52:41;;;;;;;21.00;8.65;;;15.50;99.90;;;;;;4941822;29;20145;-77
2023/07/03 00:55:07;;;;;;;25.63;9.10;;;15.50;99.90;;;;;;4934100;29;20047;-77
2023/07/03 00:57:32;;;;;;;22.02;8.20;;;15.50;99.90;;;;;;4925623;29;20123;-77
2023/07/03 00:59:59;;;;;;;20.20;8.80;;;15.50;99.90;;;;;;4940580;28;20111;-77
2023/07/03 01:02:30;;;;;;;22.42;8.57;;;15.50;99.90;;;;;;4933854;29;20054;-77
2023/07/03 01:05:09;;;;;;;24.20;8.65;;;15.50;99.90;;;;;;4933805;29;20039;-77
2023/07/03 01:07:36;;;;;;;26.05;8.93;;;15.50;99.90;;;;;;4933445;29;20379;-77
2023/07/03 01:10:09;;;;;;;17.58;7.85;;;15.50;99.90;;;;;;4933389;29;20032;-77
2023/07/03 01:12:39;;;;;;;24.30;8.75;;;15.50;99.90;;;;;;4933756;29;20040;-76
2023/07/03 01:15:09;;;;;;;23.52;8.13;;;15.50;99.90;;;;;;4947661;29;20514;-77
2023/07/03 01:17:37;;;;;;;20.17;8.27;;;15.50;99.90;;;;;;4950952;29;20512;-77
2023/07/03 01:20:04;;;;;;;22.95;7.97;;;15.50;99.90;;;;;;4937814;29;20168;-78
2023/07/03 01:22:56;;;;;;;21.05;7.97;;;15.50;99.90;;;;;;4941463;29;20036;-77
2023/07/03 01:25:24;;;;;;;23.02;7.63;;;15.50;99.90;;;;;;4943232;29;20073;-77
2023/07/03 01:27:51;;;;;;;20.98;7.95;;;15.60;99.90;;;;;;4917041;29;20122;-77
2023/07/03 01:30:19;;;;;;;21.38;8.57;;;15.60;99.90;;;;;;4932507;29;20047;-77
2023/07/03 01:32:47;;;;;;;23.42;8.32;;;15.60;99.90;;;;;;4933715;29;20039;-77
2023/07/03 01:35:15;;;;;;;23.00;9.52;;;15.60;99.90;;;;;;4929617;29;20520;-77
2023/07/03 01:37:46;;;;;;;23.83;9.00;;;15.60;99.90;;;;;;4932520;29;20047;-77
2023/07/03 01:40:15;;;;;;;21.88;8.85;;;15.60;99.90;;;;;;4933000;29;20114;-77
2023/07/03 01:42:42;;;;;;;24.83;8.82;;;15.60;99.90;;;;;;4933627;29;20043;-78
2023/07/03 01:45:09;;;;;;;24.42;9.05;;;15.60;99.90;;;;;;4933642;29;20481;-78
2023/07/03 01:47:36;;;;;;;22.90;9.30;;;15.50;99.90;;;;;;4932539;29;20043;-79
2023/07/03 01:50:03;;;;;;;24.42;8.50;;;15.60;99.90;;;;;;4916023;29;20483;-79
2023/07/03 01:52:41;;;;;;;25.48;8.70;;;15.60;99.90;;;;;;4933078;29;20086;-78
2023/07/03 01:55:07;;;;;;;24.88;8.63;;;15.60;99.90;;;;;;4933170;29;20039;-78
2023/07/03 01:57:49;;;;;;;22.90;8.77;;;15.60;99.90;;;;;;4932932;29;20042;-78
2023/07/03 02:00:22;;;;;;;25.48;8.55;;;15.50;99.90;;;;;;4928596;29;20039;-78
2023/07/03 02:02:51;;;;;;;25.80;8.65;;;15.50;99.90;;;;;;4936802;29;20046;-78
2023/07/03 02:05:22;;;;;;;27.45;8.73;;;15.50;99.90;;;;;;4936732;29;20032;-78
2023/07/03 02:07:53;;;;;;;25.52;8.65;;;15.50;99.90;;;;;;4929385;29;20046;-78
2023/07/03 02:10:18;;;;;;;28.23;9.80;;;15.50;99.90;;;;;;4920465;29;20036;-78
2023/07/03 02:12:47;;;;;;;25.42;8.68;;;15.50;99.90;;;;;;4920906;29;20046;-78
2023/07/03 02:15:17;;;;;;;27.85;9.05;;;15.50;99.90;;;;;;4936366;29;20063;-78
2023/07/03 02:17:43;;;;;;;25.15;8.98;;;15.50;99.90;;;;;;4947418;29;20118;-78
2023/07/03 02:20:14;;;;;;;23.67;8.05;;;15.50;99.90;;;;;;4954382;29;20091;-78
2023/07/03 02:22:43;;;;;;;26.55;8.88;;;15.50;99.90;;;;;;4937555;29;20044;-78
2023/07/03 02:25:10;;;;;;;25.55;8.57;;;15.50;99.90;;;;;;4937044;29;20045;-78
2023/07/03 02:27:36;;;;;;;21.42;8.07;;;15.50;99.90;;;;;;4937516;29;20088;-78
2023/07/03 02:30:02;;;;;;;24.23;8.77;;;15.50;99.90;;;;;;4943183;28;20209;-78
2023/07/03 02:32:34;;;;;;;27.15;8.98;;;15.50;99.90;;;;;;4936238;29;20039;-79
2023/07/03 02:34:59;;;;;;;27.70;9.23;;;15.50;99.90;;;;;;4936569;29;20502;-78
2023/07/03 02:37:25;;;;;;;24.52;8.80;;;15.40;99.90;;;;;;4934852;29;20134;-78
2023/07/03 02:39:50;;;;;;;26.90;8.80;;;15.40;99.90;;;;;;4940021;29;20445;-78
2023/07/03 02:42:16;;;;;;;23.70;8.50;;;15.40;99.90;;;;;;4939487;28;20035;-78
2023/07/03 02:44:41;;;;;;;27.23;8.50;;;15.40;99.90;;;;;;4951167;29;20050;-78
2023/07/03 02:47:07;;;;;;;29.38;9.77;;;15.40;99.90;;;;;;4934635;29;20042;-78
2023/07/03 02:49:33;;;;;;;25.38;9.15;;;15.40;99.90;;;;;;4912386;29;20551;-78
2023/07/03 02:51:58;;;;;;;22.27;8.27;;;15.30;99.90;;;;;;4936490;29;20458;-78
2023/07/03 02:54:24;;;;;;;23.30;9.25;;;15.30;99.90;;;;;;4928071;29;20048;-78
2023/07/03 02:56:49;;;;;;;26.70;8.82;;;15.30;99.90;;;;;;4943169;29;20099;-78
2023/07/03 02:59:15;;;;;;;27.00;9.75;;;15.30;99.90;;;;;;4919827;29;20043;-78
2023/07/03 03:01:41;;;;;;;24.92;9.13;;;15.30;99.90;;;;;;4944164;29;20032;-78
2023/07/03 03:04:06;;;;;;;26.00;8.82;;;15.30;99.90;;;;;;4935639;29;20042;-78
2023/07/03 03:06:33;;;;;;;25.83;8.57;;;15.20;99.90;;;;;;4933480;29;20160;-78
2023/07/03 03:08:58;;;;;;;25.75;8.73;;;15.20;99.90;;;;;;4929747;29;20450;-78
2023/07/03 03:11:24;;;;;;;23.52;8.75;;;15.20;99.90;;;;;;4935354;29;20047;-78
2023/07/03 03:13:50;;;;;;;26.52;9.38;;;15.10;99.90;;;;;;4944321;29;20039;-78
2023/07/03 03:16:16;;;;;;;26.40;9.15;;;15.20;99.90;;;;;;4938801;29;20517;-78
2023/07/03 03:18:41;;;;;;;24.25;8.00;;;15.20;99.90;;;;;;4935585;29;20043;-78
2023/07/03 03:21:07;;;;;;;26.17;9.15;;;15.10;99.90;;;;;;4936144;29;20040;-78
2023/07/03 03:23:33;;;;;;;23.10;7.70;;;15.10;99.90;;;;;;4935607;29;20044;-78
2023/07/03 03:25:58;;;;;;;24.52;8.23;;;15.00;99.90;;;;;;4935003;29;20486;-78
2023/07/03 03:28:24;;;;;;;25.02;8.00;;;15.10;99.90;;;;;;4943044;29;20046;-77
2023/07/03 03:30:49;;;;;;;22.23;7.40;;;15.00;99.90;;;;;;4954704;29;20066;-77
2023/07/03 03:33:15;;;;;;;22.85;7.95;;;14.90;99.90;;;;;;4938984;29;20515;-77
2023/07/03 03:35:41;;;;;;;19.55;7.57;;;14.90;99.90;;;;;;4934783;29;20046;-78
2023/07/03 03:38:07;;;;;;;19.35;6.90;;;14.80;99.90;;;;;;4935045;29;20039;-77
2023/07/03 03:40:32;;;;;;;18.17;6.88;;;14.80;99.90;;;;;;4919718;29;20050;-77
2023/07/03 03:42:58;;;;;;;15.80;5.75;;;14.70;99.90;;;;;;4939785;29;20082;-77
2023/07/03 03:45:24;;;;;;;14.30;5.63;;;14.60;99.90;;;;;;4943235;29;20051;-77
2023/07/03 03:47:51;;;;;;;13.25;4.70;;;14.50;99.90;;;;;;4934925;29;20038;-77
2023/07/03 03:50:16;;;;;;;12.73;4.15;;;14.40;99.90;;;;;;4934925;29;20406;-77
2023/07/03 03:52:42;;;;;;;13.77;3.85;;;14.30;99.90;;;;;;4945700;29;20031;-77
2023/07/03 03:55:08;;;;;;;10.32;3.97;;;14.10;99.90;;;;;;4953182;29;20043;-77
2023/07/03 03:57:34;;;;;;;11.45;3.67;;;14.10;99.90;;;;;;4933309;29;20039;-77
2023/07/03 03:59:59;;;;;;;8.82;3.13;;;14.00;99.90;;;;;;4918558;29;20106;-77
2023/07/03 04:02:25;;;;;;;8.32;3.00;;;13.90;99.90;;;;;;4943495;29;20038;-77
2023/07/03 04:04:51;;;;;;;7.70;2.97;;;13.80;99.90;;;;;;4938253;29;20130;-78
2023/07/03 04:07:16;;;;;;;7.93;3.03;;;13.70;99.90;;;;;;4918432;29;20144;-78
2023/07/03 04:09:42;;;;;;;8.23;2.97;;;13.70;99.90;;;;;;4935122;29;20054;-78
2023/07/03 04:12:08;;;;;;;9.88;3.03;;;13.60;99.90;;;;;;4934531;29;20044;-78
2023/07/03 04:14:33;;;;;;;9.15;3.22;;;13.60;99.90;;;;;;4943778;29;20047;-78
2023/07/03 04:17:00;;;;;;;11.23;3.38;;;13.60;99.90;;;;;;4938253;29;20046;-78
2023/07/03 04:19:28;;;;;;;11.00;3.13;;;13.70;99.90;;;;;;4934602;29;20494;-78
2023/07/03 04:21:54;;;;;;;8.60;2.75;;;13.70;99.90;;;;;;4934564;29;20238;-78
2023/07/03 04:24:19;;;;;;;10.25;3.00;;;13.70;99.90;;;;;;4925383;29;20130;-78
2023/07/03 04:26:45;;;;;;;9.38;3.28;;;13.80;99.90;;;;;;4933449;29;20035;-78
2023/07/03 04:29:10;;;;;;;9.38;3.20;;;13.90;99.90;;;;;;4934376;29;20529;-78
2023/07/03 04:31:36;;;;;;;10.07;3.05;;;14.00;99.90;;;;;;4942113;29;20110;-78
2023/07/03 04:34:02;;;;;;;9.38;2.65;;;14.10;99.90;;;;;;4931647;29;20039;-78
2023/07/03 04:36:28;;;;;;;8.10;2.55;;;14.40;99.90;;;;;;4926039;29;20045;-77
2023/07/03 04:38:57;;;;;;;7.03;2.67;;;14.80;99.90;;;;;;4930607;29;20593;-78
2023/07/03 04:41:24;;;;;;;10.15;2.53;;;15.30;99.90;;;;;;4950173;29;20043;-78
2023/07/03 04:43:51;;;;;;;9.07;3.00;;;15.90;99.90;;;;;;4953172;28;20047;-78
2023/07/03 04:46:18;;;;;;;9.02;2.70;;;16.10;99.90;;;;;;4944026;29;20055;-78
2023/07/03 04:48:45;;;;;;;8.43;2.88;;;16.30;99.90;;;;;;4922932;29;20059;-78
2023/07/03 04:51:11;;;;;;;8.85;2.72;;;16.50;99.90;;;;;;4915096;29;20083;-78
2023/07/03 04:53:40;;;;;;;9.38;2.88;;;16.60;99.90;;;;;;4948751;28;20047;-78
2023/07/03 04:56:08;;;;;;;9.00;2.65;;;16.50;99.90;;;;;;4939056;29;20063;-78
2023/07/03 04:58:33;;;;;;;8.70;2.63;;;16.20;99.90;;;;;;4933536;29;20097;-78
2023/07/03 05:00:59;;;;;;;10.82;2.92;;;16.10;99.90;;;;;;4918376;29;20449;-78
2023/07/03 05:03:25;;;;;;;9.60;2.85;;;16.30;99.90;;;;;;4917299;29;20106;-78
2023/07/03 05:05:50;;;;;;;9.23;2.92;;;16.80;99.90;;;;;;4933454;29;20091;-78
2023/07/03 05:08:16;;;;;;;8.38;2.72;;;17.60;99.90;;;;;;4933992;29;20114;-78
2023/07/03 05:10:41;;;;;;;10.45;2.72;;;18.10;99.90;;;;;;4933969;29;20055;-78
2023/07/03 05:13:07;;;;;;;9.07;2.90;;;18.30;99.90;;;;;;4916983;29;20228;-78
2023/07/03 05:15:32;;;;;;;8.25;2.70;;;18.50;99.90;;;;;;4941065;29;20122;-78
2023/07/03 05:17:58;;;;;;;6.97;2.63;;;18.80;99.90;;;;;;4933356;29;20034;-78
2023/07/03 05:20:25;;;;;;;7.68;2.63;;;19.30;99.90;;;;;;4933633;29;20044;-78
2023/07/03 05:22:52;;;;;;;6.00;2.35;;;19.80;99.90;;;;;;4933055;29;20591;-78
2023/07/03 05:25:18;;;;;;;7.15;2.70;;;19.70;99.90;;;;;;4935648;29;20418;-78
2023/07/03 05:27:45;;;;;;;9.70;2.83;;;19.70;99.90;;;;;;4914849;29;20043;-77
2023/07/03 05:30:11;;;;;;;6.00;2.42;;;20.00;99.90;;;;;;4929258;29;20067;-78
2023/07/03 05:32:38;;;;;;;8.85;2.50;;;20.40;99.90;;;;;;4934662;29;20402;-76
2023/07/03 05:35:05;;;;;;;11.88;2.97;;;20.50;99.90;;;;;;4936276;29;20044;-78
2023/07/03 05:37:31;;;;;;;8.40;2.42;;;20.20;99.90;;;;;;4923706;29;20061;-78
2023/07/03 05:39:56;;;;;;;9.93;2.65;;;19.80;99.90;;;;;;4922695;29;20490;-78
2023/07/03 05:42:23;;;;;;;11.35;3.38;;;19.70;99.90;;;;;;4944651;29;20047;-77
2023/07/03 05:44:49;;;;;;;9.38;2.72;;;19.40;99.90;;;;;;4940280;29;20042;-78
2023/07/03 05:47:15;;;;;;;11.07;2.90;;;18.90;99.90;;;;;;4940660;29;20051;-76
2023/07/03 05:49:42;;;;;;;7.68;2.63;;;18.50;99.90;;;;;;4935825;29;20094;-78
2023/07/03 05:52:09;;;;;;;8.65;2.95;;;18.20;99.90;;;;;;4934314;29;20098;-77
2023/07/03 05:54:34;;;;;;;12.50;2.60;;;18.20;99.90;;;;;;4932964;29;20044;-76
2023/07/03 05:57:04;;;;;;;9.50;2.47;;;18.20;99.90;;;;;;4936506;29;20042;-76
2023/07/03 05:59:31;;;;;;;7.45;2.40;;;18.40;99.90;;;;;;4949691;29;20050;-76
2023/07/03 06:01:57;;;;;;;9.50;2.40;;;18.70;99.90;;;;;;4922910;29;20036;-76
2023/07/03 06:04:23;;;;;;;9.45;2.78;;;19.00;99.90;;;;;;4934272;29;20043;-77
2023/07/03 06:06:55;;;;;;;7.90;2.40;;;19.00;99.90;;;;;;4933514;29;20506;-77
2023/07/03 06:09:22;;;;;;;8.40;2.40;;;18.80;99.90;;;;;;4933284;29;20167;-77
2023/07/03 06:11:50;;;;;;;9.60;2.90;;;18.60;99.90;;;;;;4941140;29;20624;-77
2023/07/03 06:14:17;;;;;;;8.32;2.75;;;18.50;99.90;;;;;;4935211;29;20044;-77
2023/07/03 06:16:47;;;;;;;9.55;2.45;;;18.30;99.90;;;;;;4932994;29;20183;-77
2023/07/03 06:19:14;;;;;;;8.13;2.70;;;18.20;99.90;;;;;;4933306;29;20055;-76
2023/07/03 06:21:39;;;;;;;9.65;2.80;;;18.10;99.90;;;;;;4932838;29;20098;-77
2023/07/03 06:24:07;;;;;;;9.80;2.70;;;18.00;99.90;;;;;;4935423;29;20032;-77
2023/07/03 06:26:33;;;;;;;9.00;2.33;;;18.00;99.90;;;;;;4932772;29;20047;-77
2023/07/03 06:29:05;;;;;;;10.75;2.67;;;18.10;99.90;;;;;;4931003;29;20075;-77
2023/07/03 06:31:31;;;;;;;8.63;2.50;;;18.10;99.90;;;;;;4916714;29;20071;-77
2023/07/03 06:33:56;;;;;;;7.97;2.75;;;18.00;99.90;;;;;;4940493;29;20114;-77
2023/07/03 06:36:23;;;;;;;8.20;2.60;;;18.00;99.90;;;;;;4944717;29;20099;-77
2023/07/03 06:38:53;;;;;;;7.72;2.58;;;17.90;99.90;;;;;;4965058;28;20122;-78
2023/07/03 06:41:20;;;;;;;8.52;2.45;;;17.80;99.90;;;;;;4948355;29;20539;-76
2023/07/03 06:43:45;;;;;;;10.50;3.03;;;17.80;99.90;;;;;;4962652;28;20056;-77
2023/07/03 06:46:11;;;;;;;8.82;2.33;;;17.70;99.90;;;;;;4947783;28;20437;-78
2023/07/03 06:48:37;;;;;;;7.18;2.50;;;17.70;99.90;;;;;;4932195;29;20051;-77
2023/07/03 06:51:05;;;;;;;11.18;3.00;;;17.70;99.90;;;;;;4934372;29;20046;-77
2023/07/03 06:53:31;;;;;;;9.07;2.80;;;17.70;99.90;;;;;;4933899;29;20043;-78
2023/07/03 06:55:57;;;;;;;14.40;3.05;;;17.70;99.90;;;;;;4923228;29;20031;-79
2023/07/03 06:58:24;;;;;;;12.38;3.25;;;17.80;99.90;;;;;;4936147;29;20054;-78
2023/07/03 07:00:50;;;;;;;9.75;3.08;;;17.80;99.90;;;;;;4935995;29;20040;-78
2023/07/03 07:03:16;;;;;;;9.57;2.95;;;18.00;99.90;;;;;;4916889;29;20040;-78
2023/07/03 07:05:41;;;;;;;9.93;2.85;;;18.10;99.90;;;;;;4937768;29;20071;-78
2023/07/03 07:08:07;;;;;;;9.45;3.17;;;18.00;99.90;;;;;;4936973;29;20079;-79
2023/07/03 07:10:38;;;;;;;10.45;3.13;;;17.80;99.90;;;;;;4936022;29;20039;-79
2023/07/03 07:13:03;;;;;;;10.52;2.83;;;17.80;99.90;;;;;;4919367;29;20067;-78
2023/07/03 07:15:29;;;;;;;10.57;2.58;;;17.70;99.90;;;;;;4951977;28;20079;-78
2023/07/03 07:17:55;;;;;;;9.35;2.70;;;17.60;99.90;;;;;;4935801;29;20238;-80
2023/07/03 07:20:20;;;;;;;9.50;3.20;;;17.60;99.90;;;;;;4919765;29;20091;-78
2023/07/03 07:22:47;;;;;;;7.60;2.30;;;17.70;99.90;;;;;;4936983;29;20058;-79
2023/07/03 07:25:13;;;;;;;8.55;2.50;;;17.90;99.90;;;;;;4943241;29;20066;-78
2023/07/03 07:27:39;;;;;;;9.52;2.40;;;18.10;99.90;;;;;;4930652;29;20082;-78
2023/07/03 07:30:05;;;;;;;12.57;2.20;;;18.20;99.90;;;;;;4926836;29;20039;-78
2023/07/03 07:32:31;;;;;;;8.23;2.00;;;18.30;99.90;;;;;;4923718;29;20039;-78
2023/07/03 07:34:56;;;;;;;5.97;1.70;;;18.40;99.90;;;;;;4942456;29;20044;-78
2023/07/03 07:37:22;;;;;;;6.90;2.00;;;18.50;99.90;;;;;;4928833;29;20032;-79
2023/07/03 07:39:47;;;;;;;7.13;2.35;;;18.60;99.90;;;;;;4916880;29;20063;-79
2023/07/03 07:42:13;;;;;;;5.32;1.90;;;18.60;99.90;;;;;;4915819;29;20559;-78
2023/07/03 08:04:48;;;;;;;5.18;1.55;;;21.70;99.90;;;;;;4855574;29;20040;-77
2023/07/03 08:11:43;;;;;;;6.32;1.77;;;23.30;97.10;;;;;;4842740;29;20139;-80
2023/07/03 08:21:33;;;;;;;5.32;1.30;;;25.30;65.60;;;;;;4862582;29;20112;-82
2023/07/03 08:24:39;;;;;;;;;;;;;;;;;;;;;
2023/07/03 10:54:55;;;;;;;5.15;1.40;;;24.50;63.50;;;;;;5009966;23;20104;-80
2023/07/03 10:58:05;;;;;;;6.38;1.40;;;24.50;61.40;;;;;;4924485;29;20486;-79
2023/07/03 11:01:06;;;;;;;4.65;1.60;;;24.10;61.00;;;;;;4905593;29;20040;-79
2023/07/03 11:03:43;;;;;;;3.70;1.40;;;23.50;61.70;;;;;;4916702;29;20047;-80
2023/07/03 11:07:13;;;;;;;5.70;1.42;;;23.30;64.00;;;;;;4938011;29;20410;-79
2023/07/03 11:13:49;;;;;;;5.20;1.20;;;24.10;64.30;;;;;;4882136;29;20043;-79
2023/07/03 11:20:41;;;;;;;6.10;1.63;;;24.00;61.20;;;;;;4946899;29;20098;-78
2023/07/03 12:04:37;;;;;;;6.40;1.75;;;22.50;63.60;;;;;;4914193;29;20055;-79
2023/07/03 12:08:00;;;;;;;4.32;1.80;;;22.20;65.50;;;;;;4897729;29;20059;-80
2023/07/03 12:14:57;;;;;;;;;;;;;;;;;;;;;
2023/07/03 15:03:18;;;;;;;;;;;;;;;;;;;;;
2023/07/03 15:21:55;;;;;;;10.35;2.30;;;18.30;99.90;;;;;;4786945;29;20106;-80
2023/07/03 15:25:33;;;;;;;7.00;2.03;;;18.20;99.90;;;;;;5051098;23;20416;-78
2023/07/03 15:40:12;;;;;;;8.02;2.40;;;18.10;99.90;;;;;;4921585;29;20119;-81
2023/07/03 15:48:42;;;;;;;9.75;2.50;;;18.40;99.90;;;;;;5183715;23;20058;-80
2023/07/03 15:58:35;;;;;;;12.38;2.45;;;18.80;99.90;;;;;;4991614;28;20071;-78
2023/07/03 16:07:47;;;;;;;6.60;2.20;;;19.00;99.90;;;;;;5013535;23;20534;-81
2023/07/03 16:10:41;;;;;;;6.78;2.20;;;19.00;99.90;;;;;;4945103;28;20043;-80
2023/07/03 16:13:40;;;;;;;7.97;2.08;;;19.00;99.90;;;;;;4943310;28;20043;-80
2023/07/03 16:16:27;;;;;;;8.18;2.25;;;18.90;99.90;;;;;;4961049;28;20407;-79
2023/07/03 16:19:06;;;;;;;10.77;2.83;;;18.80;99.90;;;;;;4955004;28;20054;-80
2023/07/03 16:21:41;;;;;;;6.13;2.30;;;18.80;99.90;;;;;;4959725;28;20076;-79
2023/07/03 16:24:29;;;;;;;;;;;;;;;;;;;;;
2023/07/03 16:48:51;;;;;;;7.35;2.60;;;18.60;99.90;;;;;;5139376;23;20621;-77
2023/07/03 16:51:49;;;;;;;7.70;2.35;;;18.50;99.90;;;;;;4956741;28;20083;-80
2023/07/03 16:54:35;;;;;;;8.75;2.47;;;18.40;99.90;;;;;;4950990;28;20043;-78
2023/07/03 16:57:43;;;;;;;9.30;2.78;;;18.30;99.90;;;;;;4924305;29;20055;-77
2023/07/03 17:01:06;;;;;;;;;;;;;;;;;;;;;
2023/07/03 17:03:48;;;;;;;10.30;3.15;;;18.30;99.90;;;;;;4942814;28;20062;-79
2023/07/03 17:06:34;;;;;;;8.43;2.83;;;18.20;99.90;;;;;;4944741;29;20493;-78
2023/07/03 17:09:04;;;;;;;9.23;2.80;;;18.20;99.90;;;;;;4946240;28;20393;-79
2023/07/03 17:11:37;;;;;;;;;;;18.10;99.90;;;;;;4919433;29;20079;-77
2023/07/03 17:14:15;;;;;;;7.25;2.70;;;18.00;99.90;;;;;;4951645;29;20017;-79
2023/07/03 17:17:02;;;;;;;6.18;2.70;;;17.90;99.90;;;;;;4939326;28;20038;-79
2023/07/03 17:20:13;;;;;;;8.82;2.72;;;18.00;99.90;;;;;;4960722;28;20083;-78
2023/07/03 17:22:55;;;;;;;7.07;2.50;;;17.90;99.90;;;;;;4937905;28;20093;-78
2023/07/03 17:25:35;;;;;;;7.88;2.78;;;17.90;99.90;;;;;;4941538;28;20473;-79
2023/07/03 17:28:07;;;;;;;9.98;3.05;;;18.00;99.90;;;;;;4941669;28;20139;-79
2023/07/03 17:30:51;;;;;;;9.20;3.30;;;18.00;99.90;;;;;;4942729;28;20485;-79
2023/07/03 17:33:31;;;;;;;7.82;2.45;;;18.00;99.90;;;;;;4942712;28;20258;-79
2023/07/03 17:36:32;;;;;;;11.07;3.10;;;18.00;99.90;;;;;;4941748;28;20039;-79
2023/07/03 17:39:23;;;;;;;9.63;3.33;;;18.10;99.90;;;;;;4937705;28;20062;-79
2023/07/03 17:42:04;;;;;;;9.25;3.47;;;18.00;99.90;;;;;;4967079;28;20097;-78
2023/07/03 17:44:38;;;;;;;12.70;3.75;;;17.90;99.90;;;;;;4940688;28;20050;-79
2023/07/03 17:47:11;;;;;;;7.25;2.88;;;17.90;99.90;;;;;;4957157;28;20599;-80
2023/07/03 17:49:56;;;;;;;9.45;3.20;;;17.80;99.90;;;;;;4924540;29;20202;-79
2023/07/03 17:55:47;;;;;;;9.48;3.08;;;17.60;99.90;;;;;;4922218;29;20070;-80
2023/07/03 17:58:22;;;;;;;8.52;3.00;;;17.50;99.90;;;;;;4937992;29;20043;-79
2023/07/03 18:01:30;;;;;;;10.93;3.50;;;17.40;99.90;;;;;;4923383;29;20047;-79
2023/07/03 18:04:05;;;;;;;8.52;2.85;;;17.40;99.90;;;;;;4909518;29;20049;-79
2023/07/03 18:06:34;;;;;;;8.68;3.10;;;17.30;99.90;;;;;;4908074;29;20039;-79
2023/07/03 18:09:42;;;;;;;9.23;3.10;;;17.30;99.90;;;;;;4929109;28;20057;-79
2023/07/03 18:15:11;;;;;;;9.82;3.33;;;17.30;99.90;;;;;;4954298;28;20042;-79
2023/07/03 18:17:56;;;;;;;12.27;3.75;;;17.20;99.90;;;;;;4941797;28;20050;-79
2023/07/03 18:21:01;;;;;;;8.25;3.15;;;17.20;99.90;;;;;;4941876;28;20560;-79
2023/07/03 18:24:02;;;;;;;9.55;3.55;;;17.10;99.90;;;;;;4932333;29;20036;-79
2023/07/03 18:26:47;;;;;;;7.55;3.15;;;17.20;99.90;;;;;;4936361;29;20047;-79
2023/07/03 18:29:52;;;;;;;9.23;3.42;;;17.10;99.90;;;;;;4937748;29;20036;-78
2023/07/03 18:32:57;;;;;;;;;;;;;;;;;;;;;
2023/07/03 18:35:59;;;;;;;9.82;3.17;;;17.10;99.90;;;;;;4938011;29;20047;-79
2023/07/03 18:38:41;;;;;;;9.05;3.10;;;17.00;99.90;;;;;;4932348;28;20223;-79
2023/07/03 18:41:09;;;;;;;8.57;3.28;;;17.00;99.90;;;;;;4962176;28;20061;-79
2023/07/03 18:43:51;;;;;;;9.45;3.35;;;17.00;99.90;;;;;;4947427;28;20035;-79
2023/07/03 18:46:41;;;;;;;8.45;3.10;;;17.00;99.90;;;;;;4944645;28;20038;-79
2023/07/03 18:49:09;;;;;;;9.82;3.42;;;16.90;99.90;;;;;;4929241;28;20090;-79
2023/07/03 18:51:40;;;;;;;10.65;2.90;;;16.90;99.90;;;;;;4943216;28;20526;-79
2023/07/03 18:54:21;;;;;;;7.85;3.00;;;16.90;99.90;;;;;;4943469;28;20048;-79
2023/07/03 18:56:53;;;;;;;7.95;3.15;;;16.90;99.90;;;;;;4941935;28;20505;-79
2023/07/03 18:59:28;;;;;;;8.73;3.17;;;16.90;99.90;;;;;;4940937;28;20154;-79
2023/07/03 19:02:06;;;;;;;7.70;3.03;;;16.90;99.90;;;;;;4943681;28;20072;-79
2023/07/03 19:04:52;;;;;;;10.85;3.47;;;16.90;99.90;;;;;;4944163;28;20078;-79
2023/07/03 19:07:33;;;;;;;7.10;3.53;;;16.80;99.90;;;;;;4942787;28;20401;-79
2023/07/03 19:10:05;;;;;;;11.02;3.50;;;16.80;99.90;;;;;;4957113;28;20509;-79
2023/07/03 19:12:43;;;;;;;11.30;4.15;;;16.80;99.90;;;;;;4958359;28;20512;-79
2023/07/03 19:15:36;;;;;;;15.48;4.63;;;16.70;99.90;;;;;;4925412;28;20121;-79
2023/07/03 19:19:04;;;;;;;13.85;4.70;;;16.60;99.90;;;;;;4950649;28;20097;-79
2023/07/03 19:22:16;;;;;;;15.38;5.25;;;16.40;99.90;;;;;;4937942;28;20129;-80
2023/07/03 19:25:41;;;;;;;15.65;5.72;;;16.20;99.90;;;;;;4922173;29;20039;-80
2023/07/03 19:29:38;;;;;;;;;;;;;;;;;;;;;
2023/07/03 19:50:53;;;;;;;18.63;6.40;;;14.70;99.90;;;;;;4748704;30;20118;-81
2023/07/03 19:54:13;;;;;;;17.80;6.93;;;14.50;99.90;;;;;;4762002;30;20564;-78
2023/07/03 20:30:23;;;;;;;12.10;5.20;;;13.50;99.90;;;;;;5737510;23;20580;-80
2023/07/03 20:46:50;;;;;;;;;;;;;;;;;;;;;
2023/07/03 20:50:12;;;;;;;14.85;6.50;;;13.50;99.90;;;;;;4807472;29;20525;-81
2023/07/03 20:53:28;;;;;;;;;;;;;;;;;;;;;
2023/07/03 20:56:47;;;;;;;15.85;5.90;;;13.60;99.90;;;;;;4827403;29;20062;-81
2023/07/03 21:07:09;;;;;;;23.83;9.55;;;13.70;99.90;;;;;;4912110;29;20132;-81
2023/07/03 21:10:25;;;;;;;17.58;7.72;;;13.70;99.90;;;;;;4849485;29;20413;-80
2023/07/03 21:16:40;;;;;;;20.45;8.48;;;13.70;99.90;;;;;;4859823;29;20052;-81
2023/07/03 21:19:52;;;;;;;21.05;8.60;;;13.80;99.90;;;;;;4899127;29;20552;-80
2023/07/03 21:26:44;;;;;;;16.58;7.57;;;13.80;99.90;;;;;;4915799;28;20103;-80
2023/07/03 21:29:43;;;;;;;21.38;8.30;;;13.80;99.90;;;;;;4933423;28;20054;-80
2023/07/03 21:33:21;;;;;;;16.75;7.80;;;13.80;99.90;;;;;;4941243;28;20666;-81
2023/07/03 21:36:29;;;;;;;13.93;5.55;;;13.80;99.90;;;;;;4941304;28;20214;-81
2023/07/03 21:39:14;;;;;;;17.98;6.95;;;13.80;99.90;;;;;;4926778;28;20047;-80
2023/07/03 21:42:34;;;;;;;;;;;;;;;;;;;;;
2023/07/03 21:57:05;;;;;;;14.73;5.70;;;13.60;99.90;;;;;;4764245;30;20473;-81
2023/07/03 22:00:46;;;;;;;;;;;;;;;;;;;;;
2023/07/03 22:03:41;;;;;;;16.65;6.03;;;13.60;99.90;;;;;;4817217;29;20066;-78
2023/07/03 22:06:43;;;;;;;15.73;6.07;;;13.50;99.90;;;;;;4750570;30;20145;-78
2023/07/03 22:39:02;;;;;;;16.50;7.90;;;13.60;99.90;;;;;;4906612;23;20134;-76
2023/07/03 22:41:27;;;;;;;12.77;5.93;;;13.50;99.90;;;;;;4977945;28;20528;-76
2023/07/03 22:43:53;;;;;;;13.57;5.82;;;13.60;99.90;;;;;;4977252;28;20038;-76
2023/07/03 22:46:18;;;;;;;14.27;6.60;;;13.60;99.90;;;;;;4977882;28;20412;-76
2023/07/03 22:48:46;;;;;;;12.35;6.15;;;13.50;99.90;;;;;;4955089;28;20038;-76
2023/07/03 22:51:12;;;;;;;16.48;6.28;;;13.50;99.90;;;;;;4951886;28;20039;-76
2023/07/03 22:53:38;;;;;;;13.73;6.53;;;13.60;99.90;;;;;;4956381;28;20124;-76
2023/07/03 22:56:05;;;;;;;15.40;7.38;;;13.50;99.90;;;;;;4958280;28;20031;-76
2023/07/03 22:58:34;;;;;;;12.68;6.55;;;13.50;99.90;;;;;;4960676;28;20093;-76
2023/07/03 23:01:10;;;;;;;16.98;6.10;;;13.50;99.90;;;;;;4953274;28;20394;-76
2023/07/03 23:03:39;;;;;;;13.75;6.57;;;13.50;99.90;;;;;;4940673;28;20066;-76
2023/07/03 23:06:06;;;;;;;15.07;7.78;;;13.50;99.90;;;;;;4958577;28;20043;-76
2023/07/03 23:08:32;;;;;;;17.20;7.22;;;13.50;99.90;;;;;;4956399;28;20077;-76
2023/07/03 23:10:59;;;;;;;17.35;6.97;;;13.50;99.90;;;;;;4957836;28;20386;-76
2023/07/03 23:13:25;;;;;;;17.85;7.45;;;13.50;99.90;;;;;;4958055;28;20141;-76
2023/07/03 23:15:55;;;;;;;20.02;8.73;;;13.50;99.90;;;;;;4957690;28;20541;-76
2023/07/03 23:18:21;;;;;;;18.90;8.25;;;13.50;99.90;;;;;;4941614;28;20074;-76
2023/07/03 23:21:02;;;;;;;18.98;8.40;;;13.50;99.90;;;;;;4941744;28;20046;-76
2023/07/03 23:23:32;;;;;;;14.25;7.35;;;13.50;99.90;;;;;;4930903;29;20040;-76
2023/07/03 23:25:59;;;;;;;13.93;7.40;;;13.50;99.90;;;;;;4939106;29;20405;-76
2023/07/03 23:28:31;;;;;;;16.88;7.13;;;13.50;99.90;;;;;;4934856;28;20527;-75
2023/07/03 23:30:59;;;;;;;14.63;7.15;;;13.50;99.90;;;;;;4951563;28;20122;-76